sensor_id;sensor_type;location;lat;lon;timestamp;temperature;humidity
21627;DHT22;10975;47.872;12.972;2022-08-18T00:01:03;20.60;99.90
21627;DHT22;10975;47.872;12.972;2022-08-18T00:03:31;20.60;99.90
21627;DHT22;10975;47.872;12.972;2022-08-18T00:06:18;20.60;99.90
21627;DHT22;10975;47.872;12.972;2022-08-18T00:08:45;20.60;99.90
21627;DHT22;10975;47.872;12.972;2022-08-18T00:11:11;20.60;99.90
21627;DHT22;10975;47.872;12.972;2022-08-18T00:13:38;20.60;99.90
21627;DHT22;10975;47.872;12.972;2022-08-18T00:16:05;20.50;99.90
21627;DHT22;10975;47.872;12.972;2022-08-18T00:18:32;20.30;99.90
21627;DHT22;10975;47.872;12.972;2022-08-18T00:20:58;20.30;99.90
21627;DHT22;10975;47.872;12.972;2022-08-18T00:23:25;20.40;99.90
21627;DHT22;10975;47.872;12.972;2022-08-18T00:25:54;20.50;99.90
21627;DHT22;10975;47.872;12.972;2022-08-18T00:28:22;20.50;99.90
21627;DHT22;10975;47.872;12.972;2022-08-18T00:30:49;20.50;99.90
21627;DHT22;10975;47.872;12.972;2022-08-18T00:33:19;20.50;99.90
21627;DHT22;10975;47.872;12.972;2022-08-18T00:35:46;20.50;99.90
21627;DHT22;10975;47.872;12.972;2022-08-18T00:38:13;20.70;99.90
21627;DHT22;10975;47.872;12.972;2022-08-18T00:40:52;21.20;99.90
21627;DHT22;10975;47.872;12.972;2022-08-18T00:43:24;21.70;99.90
21627;DHT22;10975;47.872;12.972;2022-08-18T00:45:53;21.90;99.90
21627;DHT22;10975;47.872;12.972;2022-08-18T00:48:19;22.00;99.90
21627;DHT22;10975;47.872;12.972;2022-08-18T00:53:30;22.50;99.90
21627;DHT22;10975;47.872;12.972;2022-08-18T00:56:02;22.30;99.90
21627;DHT22;10975;47.872;12.972;2022-08-18T00:58:34;22.30;99.90
21627;DHT22;10975;47.872;12.972;2022-08-18T01:01:03;22.20;99.90
21627;DHT22;10975;47.872;12.972;2022-08-18T01:03:31;22.20;99.90
21627;DHT22;10975;47.872;12.972;2022-08-18T01:06:01;22.10;99.90
21627;DHT22;10975;47.872;12.972;2022-08-18T01:08:28;22.00;99.90
21627;DHT22;10975;47.872;12.972;2022-08-18T01:10:56;21.90;99.90
21627;DHT22;10975;47.872;12.972;2022-08-18T01:13:25;21.90;99.90
21627;DHT22;10975;47.872;12.972;2022-08-18T01:15:52;21.80;99.90
21627;DHT22;10975;47.872;12.972;2022-08-18T01:18:18;21.80;99.90
21627;DHT22;10975;47.872;12.972;2022-08-18T01:23:53;21.60;99.90
21627;DHT22;10975;47.872;12.972;2022-08-18T01:26:21;21.60;99.90
21627;DHT22;10975;47.872;12.972;2022-08-18T01:28:49;21.70;99.90
21627;DHT22;10975;47.872;12.972;2022-08-18T01:33:58;21.80;99.90
21627;DHT22;10975;47.872;12.972;2022-08-18T01:36:24;21.70;99.90
21627;DHT22;10975;47.872;12.972;2022-08-18T01:38:51;21.70;99.90
21627;DHT22;10975;47.872;12.972;2022-08-18T01:41:19;21.60;99.90
21627;DHT22;10975;47.872;12.972;2022-08-18T01:43:54;21.60;99.90
21627;DHT22;10975;47.872;12.972;2022-08-18T01:46:21;21.50;99.90
21627;DHT22;10975;47.872;12.972;2022-08-18T01:48:48;21.50;99.90
21627;DHT22;10975;47.872;12.972;2022-08-18T01:51:16;21.60;99.90
21627;DHT22;10975;47.872;12.972;2022-08-18T01:53:45;21.70;99.90
21627;DHT22;10975;47.872;12.972;2022-08-18T01:56:11;21.60;99.90
21627;DHT22;10975;47.872;12.972;2022-08-18T01:58:39;21.50;99.90
21627;DHT22;10975;47.872;12.972;2022-08-18T02:01:06;21.50;99.90
21627;DHT22;10975;47.872;12.972;2022-08-18T02:03:34;21.60;99.90
21627;DHT22;10975;47.872;12.972;2022-08-18T02:06:03;21.50;99.90
21627;DHT22;10975;47.872;12.972;2022-08-18T02:08:31;21.40;99.90
21627;DHT22;10975;47.872;12.972;2022-08-18T02:10:58;21.30;99.90
21627;DHT22;10975;47.872;12.972;2022-08-18T02:13:25;21.20;99.90
21627;DHT22;10975;47.872;12.972;2022-08-18T02:15:52;21.20;99.90
21627;DHT22;10975;47.872;12.972;2022-08-18T02:18:28;21.20;99.90
21627;DHT22;10975;47.872;12.972;2022-08-18T02:21:16;21.10;99.90
21627;DHT22;10975;47.872;12.972;2022-08-18T02:23:44;21.20;99.90
21627;DHT22;10975;47.872;12.972;2022-08-18T02:26:19;21.10;99.90
21627;DHT22;10975;47.872;12.972;2022-08-18T02:28:46;21.10;99.90
21627;DHT22;10975;47.872;12.972;2022-08-18T02:31:17;21.00;99.90
21627;DHT22;10975;47.872;12.972;2022-08-18T02:33:44;21.00;99.90
21627;DHT22;10975;47.872;12.972;2022-08-18T02:36:17;20.90;99.90
21627;DHT22;10975;47.872;12.972;2022-08-18T02:38:44;20.90;99.90
21627;DHT22;10975;47.872;12.972;2022-08-18T02:41:22;20.90;99.90
21627;DHT22;10975;47.872;12.972;2022-08-18T02:43:49;21.00;99.90
21627;DHT22;10975;47.872;12.972;2022-08-18T02:46:16;21.00;99.90
21627;DHT22;10975;47.872;12.972;2022-08-18T02:48:43;21.00;99.90
21627;DHT22;10975;47.872;12.972;2022-08-18T02:51:14;20.80;99.90
21627;DHT22;10975;47.872;12.972;2022-08-18T02:53:42;20.70;99.90
21627;DHT22;10975;47.872;12.972;2022-08-18T02:56:16;20.70;99.90
21627;DHT22;10975;47.872;12.972;2022-08-18T02:59:09;20.70;99.90
21627;DHT22;10975;47.872;12.972;2022-08-18T03:01:39;20.70;99.90
21627;DHT22;10975;47.872;12.972;2022-08-18T03:04:08;20.60;99.90
21627;DHT22;10975;47.872;12.972;2022-08-18T03:06:35;20.70;99.90
21627;DHT22;10975;47.872;12.972;2022-08-18T03:09:03;20.60;99.90
21627;DHT22;10975;47.872;12.972;2022-08-18T03:11:30;20.50;99.90
21627;DHT22;10975;47.872;12.972;2022-08-18T03:13:57;20.40;99.90
21627;DHT22;10975;47.872;12.972;2022-08-18T03:16:25;20.40;99.90
21627;DHT22;10975;47.872;12.972;2022-08-18T03:18:52;20.30;99.90
21627;DHT22;10975;47.872;12.972;2022-08-18T03:21:20;20.20;99.90
21627;DHT22;10975;47.872;12.972;2022-08-18T03:23:49;20.20;99.90
21627;DHT22;10975;47.872;12.972;2022-08-18T03:26:28;20.10;99.90
21627;DHT22;10975;47.872;12.972;2022-08-18T03:28:56;20.10;99.90
21627;DHT22;10975;47.872;12.972;2022-08-18T03:31:23;20.10;99.90
21627;DHT22;10975;47.872;12.972;2022-08-18T03:33:54;19.90;99.90
21627;DHT22;10975;47.872;12.972;2022-08-18T03:36:25;19.80;99.90
21627;DHT22;10975;47.872;12.972;2022-08-18T03:38:52;19.80;99.90
21627;DHT22;10975;47.872;12.972;2022-08-18T03:41:21;19.80;99.90
21627;DHT22;10975;47.872;12.972;2022-08-18T03:44:08;19.80;99.90
21627;DHT22;10975;47.872;12.972;2022-08-18T03:46:35;19.80;99.90
21627;DHT22;10975;47.872;12.972;2022-08-18T03:49:03;19.70;99.90
21627;DHT22;10975;47.872;12.972;2022-08-18T03:51:31;19.70;99.90
21627;DHT22;10975;47.872;12.972;2022-08-18T03:53:58;19.70;99.90
21627;DHT22;10975;47.872;12.972;2022-08-18T03:56:35;19.60;99.90
21627;DHT22;10975;47.872;12.972;2022-08-18T03:59:05;19.60;99.90
21627;DHT22;10975;47.872;12.972;2022-08-18T04:01:34;19.60;99.90
21627;DHT22;10975;47.872;12.972;2022-08-18T04:04:02;19.60;99.90
21627;DHT22;10975;47.872;12.972;2022-08-18T04:06:32;19.60;99.90
21627;DHT22;10975;47.872;12.972;2022-08-18T04:09:00;19.60;99.90
21627;DHT22;10975;47.872;12.972;2022-08-18T04:11:27;19.50;99.90
21627;DHT22;10975;47.872;12.972;2022-08-18T04:14:01;19.50;99.90
21627;DHT22;10975;47.872;12.972;2022-08-18T04:16:28;19.40;99.90
21627;DHT22;10975;47.872;12.972;2022-08-18T04:18:55;19.40;99.90
21627;DHT22;10975;47.872;12.972;2022-08-18T04:21:25;19.40;99.90
21627;DHT22;10975;47.872;12.972;2022-08-18T04:23:52;19.40;99.90
21627;DHT22;10975;47.872;12.972;2022-08-18T04:26:19;19.40;99.90
21627;DHT22;10975;47.872;12.972;2022-08-18T04:28:47;19.40;99.90
21627;DHT22;10975;47.872;12.972;2022-08-18T04:31:14;19.30;99.90
21627;DHT22;10975;47.872;12.972;2022-08-18T04:33:41;19.30;99.90
21627;DHT22;10975;47.872;12.972;2022-08-18T04:36:08;19.30;99.90
21627;DHT22;10975;47.872;12.972;2022-08-18T04:38:35;19.20;99.90
21627;DHT22;10975;47.872;12.972;2022-08-18T04:41:02;19.20;99.90
21627;DHT22;10975;47.872;12.972;2022-08-18T04:43:29;19.30;99.90
21627;DHT22;10975;47.872;12.972;2022-08-18T04:45:56;19.30;99.90
21627;DHT22;10975;47.872;12.972;2022-08-18T04:48:30;19.40;99.90
21627;DHT22;10975;47.872;12.972;2022-08-18T04:51:04;19.40;99.90
21627;DHT22;10975;47.872;12.972;2022-08-18T04:53:33;19.30;99.90
21627;DHT22;10975;47.872;12.972;2022-08-18T04:56:13;19.40;99.90
21627;DHT22;10975;47.872;12.972;2022-08-18T04:58:40;19.50;99.90
21627;DHT22;10975;47.872;12.972;2022-08-18T05:01:07;19.50;99.90
21627;DHT22;10975;47.872;12.972;2022-08-18T05:03:35;19.50;99.90
21627;DHT22;10975;47.872;12.972;2022-08-18T05:06:16;19.60;99.90
21627;DHT22;10975;47.872;12.972;2022-08-18T05:08:43;19.50;99.90
21627;DHT22;10975;47.872;12.972;2022-08-18T05:11:10;19.60;99.90
21627;DHT22;10975;47.872;12.972;2022-08-18T05:13:36;19.60;99.90
21627;DHT22;10975;47.872;12.972;2022-08-18T05:16:04;19.80;99.90
21627;DHT22;10975;47.872;12.972;2022-08-18T05:18:39;19.90;99.90
21627;DHT22;10975;47.872;12.972;2022-08-18T05:21:08;20.00;99.90
21627;DHT22;10975;47.872;12.972;2022-08-18T05:23:42;20.10;99.90
21627;DHT22;10975;47.872;12.972;2022-08-18T05:26:09;20.30;99.90
21627;DHT22;10975;47.872;12.972;2022-08-18T05:28:36;20.40;99.90
21627;DHT22;10975;47.872;12.972;2022-08-18T05:31:10;20.50;99.90
21627;DHT22;10975;47.872;12.972;2022-08-18T05:33:39;20.50;99.90
21627;DHT22;10975;47.872;12.972;2022-08-18T05:36:23;20.70;99.90
21627;DHT22;10975;47.872;12.972;2022-08-18T05:38:54;20.70;99.90
21627;DHT22;10975;47.872;12.972;2022-08-18T05:41:26;20.80;99.90
21627;DHT22;10975;47.872;12.972;2022-08-18T05:43:54;20.90;99.90
21627;DHT22;10975;47.872;12.972;2022-08-18T05:49:04;21.10;99.90
21627;DHT22;10975;47.872;12.972;2022-08-18T05:51:34;21.10;99.90
21627;DHT22;10975;47.872;12.972;2022-08-18T05:54:02;21.20;99.90
21627;DHT22;10975;47.872;12.972;2022-08-18T05:56:49;21.20;99.90
21627;DHT22;10975;47.872;12.972;2022-08-18T05:59:18;21.30;99.90
21627;DHT22;10975;47.872;12.972;2022-08-18T06:01:47;21.30;99.90
21627;DHT22;10975;47.872;12.972;2022-08-18T06:06:49;21.20;99.90
21627;DHT22;10975;47.872;12.972;2022-08-18T06:09:23;21.20;99.90
21627;DHT22;10975;47.872;12.972;2022-08-18T06:11:52;21.20;99.90
21627;DHT22;10975;47.872;12.972;2022-08-18T06:14:20;21.30;99.90
21627;DHT22;10975;47.872;12.972;2022-08-18T06:25:09;21.40;99.90
21627;DHT22;10975;47.872;12.972;2022-08-18T06:30:18;21.60;99.90
21627;DHT22;10975;47.872;12.972;2022-08-18T06:38:23;21.70;99.90
21627;DHT22;10975;47.872;12.972;2022-08-18T06:41:12;21.70;99.90
21627;DHT22;10975;47.872;12.972;2022-08-18T06:44:04;21.70;99.90
21627;DHT22;10975;47.872;12.972;2022-08-18T06:49:27;21.80;99.90
21627;DHT22;10975;47.872;12.972;2022-08-18T06:51:56;21.80;99.90
21627;DHT22;10975;47.872;12.972;2022-08-18T06:54:24;21.70;99.90
21627;DHT22;10975;47.872;12.972;2022-08-18T06:56:53;21.70;99.90
21627;DHT22;10975;47.872;12.972;2022-08-18T06:59:28;21.70;99.90
21627;DHT22;10975;47.872;12.972;2022-08-18T07:01:57;21.80;99.90
21627;DHT22;10975;47.872;12.972;2022-08-18T07:04:30;21.80;99.90
21627;DHT22;10975;47.872;12.972;2022-08-18T07:06:57;21.90;99.90
21627;DHT22;10975;47.872;12.972;2022-08-18T07:09:24;22.00;99.90
21627;DHT22;10975;47.872;12.972;2022-08-18T07:11:57;22.00;99.90
21627;DHT22;10975;47.872;12.972;2022-08-18T07:14:24;22.00;99.90
21627;DHT22;10975;47.872;12.972;2022-08-18T07:17:04;22.10;99.90
21627;DHT22;10975;47.872;12.972;2022-08-18T07:19:31;22.10;99.90
21627;DHT22;10975;47.872;12.972;2022-08-18T07:24:29;22.10;99.90
21627;DHT22;10975;47.872;12.972;2022-08-18T07:29:32;22.20;99.90
21627;DHT22;10975;47.872;12.972;2022-08-18T07:32:05;22.40;99.90
21627;DHT22;10975;47.872;12.972;2022-08-18T07:34:47;22.50;99.90
21627;DHT22;10975;47.872;12.972;2022-08-18T07:40:03;22.70;99.90
21627;DHT22;10975;47.872;12.972;2022-08-18T07:42:45;22.80;99.90
21627;DHT22;10975;47.872;12.972;2022-08-18T07:45:35;22.80;99.90
21627;DHT22;10975;47.872;12.972;2022-08-18T07:48:09;22.90;99.90
21627;DHT22;10975;47.872;12.972;2022-08-18T07:56:27;22.80;99.90
21627;DHT22;10975;47.872;12.972;2022-08-18T07:59:41;22.90;99.90
21627;DHT22;10975;47.872;12.972;2022-08-18T08:02:12;23.00;99.90
21627;DHT22;10975;47.872;12.972;2022-08-18T08:07:24;23.10;99.90
21627;DHT22;10975;47.872;12.972;2022-08-18T08:17:55;23.00;99.90
21627;DHT22;10975;47.872;12.972;2022-08-18T08:20:26;23.00;99.90
21627;DHT22;10975;47.872;12.972;2022-08-18T08:23:08;23.00;99.90
21627;DHT22;10975;47.872;12.972;2022-08-18T08:25:54;23.00;99.90
21627;DHT22;10975;47.872;12.972;2022-08-18T08:34:05;23.30;99.90
21627;DHT22;10975;47.872;12.972;2022-08-18T08:36:35;23.60;99.90
21627;DHT22;10975;47.872;12.972;2022-08-18T08:39:04;23.50;99.90
21627;DHT22;10975;47.872;12.972;2022-08-18T08:41:37;23.50;99.90
21627;DHT22;10975;47.872;12.972;2022-08-18T08:46:46;23.50;99.90
21627;DHT22;10975;47.872;12.972;2022-08-18T08:49:49;23.30;99.90
21627;DHT22;10975;47.872;12.972;2022-08-18T08:52:14;23.20;99.90
21627;DHT22;10975;47.872;12.972;2022-08-18T08:54:51;23.30;99.90
21627;DHT22;10975;47.872;12.972;2022-08-18T08:57:20;23.30;99.90
21627;DHT22;10975;47.872;12.972;2022-08-18T08:59:47;23.40;99.90
21627;DHT22;10975;47.872;12.972;2022-08-18T09:05:08;23.70;99.90
21627;DHT22;10975;47.872;12.972;2022-08-18T09:13:52;23.80;99.90
21627;DHT22;10975;47.872;12.972;2022-08-18T09:18:46;24.00;99.90
21627;DHT22;10975;47.872;12.972;2022-08-18T09:23:45;24.10;99.90
21627;DHT22;10975;47.872;12.972;2022-08-18T09:31:22;24.20;99.90
21627;DHT22;10975;47.872;12.972;2022-08-18T09:33:53;24.10;99.90
21627;DHT22;10975;47.872;12.972;2022-08-18T09:41:39;24.50;99.90
21627;DHT22;10975;47.872;12.972;2022-08-18T09:44:57;24.60;99.90
21627;DHT22;10975;47.872;12.972;2022-08-18T09:47:08;24.70;99.90
21627;DHT22;10975;47.872;12.972;2022-08-18T09:49:40;24.80;99.90
21627;DHT22;10975;47.872;12.972;2022-08-18T09:54:53;24.80;99.90
21627;DHT22;10975;47.872;12.972;2022-08-18T09:57:30;25.00;99.90
21627;DHT22;10975;47.872;12.972;2022-08-18T10:07:43;24.70;99.90
21627;DHT22;10975;47.872;12.972;2022-08-18T10:21:23;25.30;99.90
21627;DHT22;10975;47.872;12.972;2022-08-18T10:37:22;25.50;99.90
21627;DHT22;10975;47.872;12.972;2022-08-18T10:42:31;25.70;99.90
21627;DHT22;10975;47.872;12.972;2022-08-18T10:45:05;25.70;99.90
21627;DHT22;10975;47.872;12.972;2022-08-18T10:47:35;25.80;99.90
21627;DHT22;10975;47.872;12.972;2022-08-18T10:50:04;25.90;99.90
21627;DHT22;10975;47.872;12.972;2022-08-18T10:55:53;26.10;99.90
21627;DHT22;10975;47.872;12.972;2022-08-18T11:01:23;26.20;99.90
21627;DHT22;10975;47.872;12.972;2022-08-18T11:04:00;26.20;99.90
21627;DHT22;10975;47.872;12.972;2022-08-18T11:07:04;26.10;99.90
21627;DHT22;10975;47.872;12.972;2022-08-18T11:09:33;26.00;99.90
21627;DHT22;10975;47.872;12.972;2022-08-18T11:12:06;26.20;99.90
21627;DHT22;10975;47.872;12.972;2022-08-18T11:19:51;26.30;99.90
21627;DHT22;10975;47.872;12.972;2022-08-18T11:22:25;26.40;99.90
21627;DHT22;10975;47.872;12.972;2022-08-18T11:24:58;26.40;99.90
21627;DHT22;10975;47.872;12.972;2022-08-18T11:27:30;26.30;99.90
21627;DHT22;10975;47.872;12.972;2022-08-18T11:29:59;26.20;99.90
21627;DHT22;10975;47.872;12.972;2022-08-18T11:32:36;26.20;99.90
21627;DHT22;10975;47.872;12.972;2022-08-18T11:35:20;26.20;99.90
21627;DHT22;10975;47.872;12.972;2022-08-18T11:37:53;26.20;99.90
21627;DHT22;10975;47.872;12.972;2022-08-18T11:43:27;26.20;99.90
21627;DHT22;10975;47.872;12.972;2022-08-18T11:48:48;26.20;99.90
21627;DHT22;10975;47.872;12.972;2022-08-18T11:51:34;26.30;99.90
21627;DHT22;10975;47.872;12.972;2022-08-18T11:54:17;26.40;99.90
21627;DHT22;10975;47.872;12.972;2022-08-18T11:56:44;26.50;99.90
21627;DHT22;10975;47.872;12.972;2022-08-18T12:02:18;26.60;99.90
21627;DHT22;10975;47.872;12.972;2022-08-18T12:04:48;26.70;99.90
21627;DHT22;10975;47.872;12.972;2022-08-18T12:07:16;26.90;99.90
21627;DHT22;10975;47.872;12.972;2022-08-18T12:10:10;27.00;99.90
21627;DHT22;10975;47.872;12.972;2022-08-18T12:12:47;27.20;99.90
21627;DHT22;10975;47.872;12.972;2022-08-18T12:17:50;27.60;99.90
21627;DHT22;10975;47.872;12.972;2022-08-18T12:20:18;27.70;99.90
21627;DHT22;10975;47.872;12.972;2022-08-18T12:22:45;27.60;99.90
21627;DHT22;10975;47.872;12.972;2022-08-18T12:25:15;27.70;99.90
21627;DHT22;10975;47.872;12.972;2022-08-18T12:27:51;27.60;99.90
21627;DHT22;10975;47.872;12.972;2022-08-18T12:30:18;27.70;99.90
21627;DHT22;10975;47.872;12.972;2022-08-18T12:32:45;27.40;99.90
21627;DHT22;10975;47.872;12.972;2022-08-18T12:35:21;27.40;99.90
21627;DHT22;10975;47.872;12.972;2022-08-18T12:37:48;27.40;99.90
21627;DHT22;10975;47.872;12.972;2022-08-18T12:40:35;27.50;99.90
21627;DHT22;10975;47.872;12.972;2022-08-18T12:43:02;27.40;99.90
21627;DHT22;10975;47.872;12.972;2022-08-18T12:45:31;27.30;99.90
21627;DHT22;10975;47.872;12.972;2022-08-18T12:47:58;27.30;99.90
21627;DHT22;10975;47.872;12.972;2022-08-18T12:50:30;27.30;99.90
21627;DHT22;10975;47.872;12.972;2022-08-18T12:53:16;27.20;99.90
21627;DHT22;10975;47.872;12.972;2022-08-18T12:55:56;27.10;99.90
21627;DHT22;10975;47.872;12.972;2022-08-18T12:58:23;27.00;99.90
21627;DHT22;10975;47.872;12.972;2022-08-18T13:00:50;26.90;99.90
21627;DHT22;10975;47.872;12.972;2022-08-18T13:03:17;27.00;99.90
21627;DHT22;10975;47.872;12.972;2022-08-18T13:05:44;26.90;99.90
21627;DHT22;10975;47.872;12.972;2022-08-18T13:08:18;26.80;99.90
21627;DHT22;10975;47.872;12.972;2022-08-18T13:10:56;26.80;99.90
21627;DHT22;10975;47.872;12.972;2022-08-18T13:13:23;26.70;99.90
21627;DHT22;10975;47.872;12.972;2022-08-18T13:15:55;26.70;99.90
21627;DHT22;10975;47.872;12.972;2022-08-18T13:18:24;26.60;99.90
21627;DHT22;10975;47.872;12.972;2022-08-18T13:20:55;26.60;99.90
21627;DHT22;10975;47.872;12.972;2022-08-18T13:23:24;26.60;99.90
21627;DHT22;10975;47.872;12.972;2022-08-18T13:25:52;26.60;99.90
21627;DHT22;10975;47.872;12.972;2022-08-18T13:28:31;26.50;99.90
21627;DHT22;10975;47.872;12.972;2022-08-18T13:31:02;26.60;99.90
21627;DHT22;10975;47.872;12.972;2022-08-18T13:33:31;26.40;99.90
21627;DHT22;10975;47.872;12.972;2022-08-18T13:36:18;26.40;99.90
21627;DHT22;10975;47.872;12.972;2022-08-18T13:38:48;26.40;99.90
21627;DHT22;10975;47.872;12.972;2022-08-18T13:41:15;26.30;99.90
21627;DHT22;10975;47.872;12.972;2022-08-18T13:43:42;26.30;99.90
21627;DHT22;10975;47.872;12.972;2022-08-18T13:46:14;26.30;99.90
21627;DHT22;10975;47.872;12.972;2022-08-18T13:48:42;26.30;99.90
21627;DHT22;10975;47.872;12.972;2022-08-18T13:51:17;26.30;99.90
21627;DHT22;10975;47.872;12.972;2022-08-18T13:53:45;26.30;99.90
21627;DHT22;10975;47.872;12.972;2022-08-18T13:56:24;26.20;99.90
21627;DHT22;10975;47.872;12.972;2022-08-18T13:58:57;26.20;99.90
21627;DHT22;10975;47.872;12.972;2022-08-18T14:01:23;26.20;99.90
21627;DHT22;10975;47.872;12.972;2022-08-18T14:04:11;26.20;99.90
21627;DHT22;10975;47.872;12.972;2022-08-18T14:06:45;26.20;99.90
21627;DHT22;10975;47.872;12.972;2022-08-18T14:09:23;26.20;99.90
21627;DHT22;10975;47.872;12.972;2022-08-18T14:12:03;26.20;99.90
21627;DHT22;10975;47.872;12.972;2022-08-18T14:14:30;26.30;99.90
21627;DHT22;10975;47.872;12.972;2022-08-18T14:16:57;26.30;99.90
21627;DHT22;10975;47.872;12.972;2022-08-18T14:19:24;26.30;99.90
21627;DHT22;10975;47.872;12.972;2022-08-18T14:22:10;26.40;99.90
21627;DHT22;10975;47.872;12.972;2022-08-18T14:24:56;26.30;99.90
21627;DHT22;10975;47.872;12.972;2022-08-18T14:27:47;26.30;99.90
21627;DHT22;10975;47.872;12.972;2022-08-18T14:30:22;26.30;99.90
21627;DHT22;10975;47.872;12.972;2022-08-18T14:32:49;26.20;99.90
21627;DHT22;10975;47.872;12.972;2022-08-18T14:35:19;26.20;99.90
21627;DHT22;10975;47.872;12.972;2022-08-18T14:38:00;26.20;99.90
21627;DHT22;10975;47.872;12.972;2022-08-18T14:40:28;26.20;99.90
21627;DHT22;10975;47.872;12.972;2022-08-18T14:42:57;26.20;99.90
21627;DHT22;10975;47.872;12.972;2022-08-18T14:45:24;26.20;99.90
21627;DHT22;10975;47.872;12.972;2022-08-18T14:48:04;26.20;99.90
21627;DHT22;10975;47.872;12.972;2022-08-18T14:50:33;26.30;99.90
21627;DHT22;10975;47.872;12.972;2022-08-18T14:53:00;26.30;99.90
21627;DHT22;10975;47.872;12.972;2022-08-18T14:55:27;26.30;99.90
21627;DHT22;10975;47.872;12.972;2022-08-18T14:57:56;26.30;99.90
21627;DHT22;10975;47.872;12.972;2022-08-18T15:00:25;26.30;99.90
21627;DHT22;10975;47.872;12.972;2022-08-18T15:02:52;26.40;99.90
21627;DHT22;10975;47.872;12.972;2022-08-18T15:05:19;26.50;99.90
21627;DHT22;10975;47.872;12.972;2022-08-18T15:07:50;26.70;99.90
21627;DHT22;10975;47.872;12.972;2022-08-18T15:10:18;26.70;99.90
21627;DHT22;10975;47.872;12.972;2022-08-18T15:12:49;26.80;99.90
21627;DHT22;10975;47.872;12.972;2022-08-18T15:15:17;26.80;99.90
21627;DHT22;10975;47.872;12.972;2022-08-18T15:17:44;26.70;99.90
21627;DHT22;10975;47.872;12.972;2022-08-18T15:20:15;26.60;99.90
21627;DHT22;10975;47.872;12.972;2022-08-18T15:22:43;26.60;99.90
21627;DHT22;10975;47.872;12.972;2022-08-18T15:25:29;26.60;99.90
21627;DHT22;10975;47.872;12.972;2022-08-18T15:28:14;26.50;99.90
21627;DHT22;10975;47.872;12.972;2022-08-18T15:30:46;26.40;99.90
21627;DHT22;10975;47.872;12.972;2022-08-18T15:33:17;26.40;99.90
21627;DHT22;10975;47.872;12.972;2022-08-18T15:35:49;26.40;99.90
21627;DHT22;10975;47.872;12.972;2022-08-18T15:38:17;26.40;99.90
21627;DHT22;10975;47.872;12.972;2022-08-18T15:40:52;26.50;99.90
21627;DHT22;10975;47.872;12.972;2022-08-18T15:43:23;26.70;99.90
21627;DHT22;10975;47.872;12.972;2022-08-18T15:45:57;26.80;99.90
21627;DHT22;10975;47.872;12.972;2022-08-18T15:48:25;26.90;99.90
21627;DHT22;10975;47.872;12.972;2022-08-18T15:50:52;26.90;99.90
21627;DHT22;10975;47.872;12.972;2022-08-18T15:53:23;27.10;99.90
21627;DHT22;10975;47.872;12.972;2022-08-18T15:55:55;27.10;99.90
21627;DHT22;10975;47.872;12.972;2022-08-18T15:58:22;27.20;99.90
21627;DHT22;10975;47.872;12.972;2022-08-18T16:00:53;27.30;99.90
21627;DHT22;10975;47.872;12.972;2022-08-18T16:03:20;27.50;99.90
21627;DHT22;10975;47.872;12.972;2022-08-18T16:05:48;27.50;99.90
21627;DHT22;10975;47.872;12.972;2022-08-18T16:08:19;27.70;99.90
21627;DHT22;10975;47.872;12.972;2022-08-18T16:10:46;27.70;99.90
21627;DHT22;10975;47.872;12.972;2022-08-18T16:13:14;27.70;99.90
21627;DHT22;10975;47.872;12.972;2022-08-18T16:15:41;27.60;99.90
21627;DHT22;10975;47.872;12.972;2022-08-18T16:18:12;27.50;99.90
21627;DHT22;10975;47.872;12.972;2022-08-18T16:20:39;27.40;99.90
21627;DHT22;10975;47.872;12.972;2022-08-18T16:23:06;27.20;99.90
21627;DHT22;10975;47.872;12.972;2022-08-18T16:25:35;27.00;99.90
21627;DHT22;10975;47.872;12.972;2022-08-18T16:28:03;26.90;99.90
21627;DHT22;10975;47.872;12.972;2022-08-18T16:30:30;26.70;99.90
21627;DHT22;10975;47.872;12.972;2022-08-18T16:32:59;26.60;99.90
21627;DHT22;10975;47.872;12.972;2022-08-18T16:35:28;26.70;99.90
21627;DHT22;10975;47.872;12.972;2022-08-18T16:37:55;27.20;99.90
21627;DHT22;10975;47.872;12.972;2022-08-18T16:40:28;27.60;99.90
21627;DHT22;10975;47.872;12.972;2022-08-18T16:42:56;27.50;99.90
21627;DHT22;10975;47.872;12.972;2022-08-18T16:45:26;27.40;99.90
21627;DHT22;10975;47.872;12.972;2022-08-18T16:47:53;27.40;99.90
21627;DHT22;10975;47.872;12.972;2022-08-18T16:50:20;27.30;99.90
21627;DHT22;10975;47.872;12.972;2022-08-18T16:52:48;27.20;99.90
21627;DHT22;10975;47.872;12.972;2022-08-18T16:55:15;27.00;99.90
21627;DHT22;10975;47.872;12.972;2022-08-18T16:57:42;26.90;99.90
21627;DHT22;10975;47.872;12.972;2022-08-18T17:00:28;27.00;99.90
21627;DHT22;10975;47.872;12.972;2022-08-18T17:03:20;27.40;99.90
21627;DHT22;10975;47.872;12.972;2022-08-18T17:06:13;27.20;99.90
21627;DHT22;10975;47.872;12.972;2022-08-18T17:08:40;26.80;99.90
21627;DHT22;10975;47.872;12.972;2022-08-18T17:11:09;26.60;99.90
21627;DHT22;10975;47.872;12.972;2022-08-18T17:13:37;26.30;99.90
21627;DHT22;10975;47.872;12.972;2022-08-18T17:16:06;26.00;99.90
21627;DHT22;10975;47.872;12.972;2022-08-18T17:18:32;25.80;99.90
21627;DHT22;10975;47.872;12.972;2022-08-18T17:21:01;25.60;99.90
21627;DHT22;10975;47.872;12.972;2022-08-18T17:23:29;25.60;99.90
21627;DHT22;10975;47.872;12.972;2022-08-18T17:25:56;25.60;99.90
21627;DHT22;10975;47.872;12.972;2022-08-18T17:28:27;25.50;99.90
21627;DHT22;10975;47.872;12.972;2022-08-18T17:31:00;25.40;99.90
21627;DHT22;10975;47.872;12.972;2022-08-18T17:33:27;25.30;99.90
21627;DHT22;10975;47.872;12.972;2022-08-18T17:35:57;25.20;99.90
21627;DHT22;10975;47.872;12.972;2022-08-18T17:38:31;25.10;99.90
21627;DHT22;10975;47.872;12.972;2022-08-18T17:40:59;25.10;99.90
21627;DHT22;10975;47.872;12.972;2022-08-18T17:43:31;25.10;99.90
21627;DHT22;10975;47.872;12.972;2022-08-18T17:48:33;25.00;99.90
21627;DHT22;10975;47.872;12.972;2022-08-18T17:51:07;25.00;99.90
21627;DHT22;10975;47.872;12.972;2022-08-18T17:53:54;24.90;99.90
21627;DHT22;10975;47.872;12.972;2022-08-18T17:56:28;24.70;99.90
21627;DHT22;10975;47.872;12.972;2022-08-18T17:59:06;24.60;99.90
21627;DHT22;10975;47.872;12.972;2022-08-18T18:04:56;24.40;99.90
21627;DHT22;10975;47.872;12.972;2022-08-18T18:07:52;24.30;99.90
21627;DHT22;10975;47.872;12.972;2022-08-18T18:13:28;24.10;99.90
21627;DHT22;10975;47.872;12.972;2022-08-18T18:15:59;24.00;99.90
21627;DHT22;10975;47.872;12.972;2022-08-18T18:20:58;23.80;99.90
21627;DHT22;10975;47.872;12.972;2022-08-18T18:23:28;23.70;99.90